Latest Weather Observations for Williamtown

IDN60801

Issued at 6:02 am EST Wednesday 4 May 2016 (issued every 30 minutes, with the page automatically refreshed every 10 minutes)

About weather observations | Map of weather stations | Latest weather observations for NSW | Other Formats
Station Details ID: 061078 Name: WILLIAMTOWN RAAF Lat: -32.79 Lon: 151.84 Height: 9.0 m
Data from the previous 72 hours. | See also: Recent months at Williamtown
Date/Time
EST
Temp
°C
App
Temp
°C
Dew
Point
Rel
Hum
%
Delta-T
°C
Wind Press
QNH
hPa
Press
MSL
hPa
Rain
since 9 am
mm
Dir
 
Spd
km/h
Gust
km/h
Spd
kts
Gust
kts
04/06:00am 14.6 11.8 10.0 74 2.4 WNW 15 20 8 11 1014.2 1014.1 0.0
04/05:30am 14.5 11.3 10.1 75 2.3 NW 17 17 9 9 1013.8 1013.7 0.0
04/05:00am 14.5 11.7 9.9 74 2.4 WNW 15 19 8 10 1013.6 1013.5 0.0
04/04:30am 14.7 11.4 9.7 72 2.6 WNW 17 20 9 11 1013.4 1013.3 0.0
04/04:00am 14.6 12.5 9.6 72 2.6 WNW 11 17 6 9 1013.1 1013.0 0.0
04/03:30am 15.1 11.8 9.5 69 2.9 WNW 17 20 9 11 1012.9 1012.8 0.0
04/03:00am 14.9 12.3 9.2 68 2.9 WNW 13 17 7 9 1012.9 1012.8 0.0
04/02:30am 16.4 13.4 9.3 63 3.7 NW 15 19 8 10 1013.0 1012.9 0.0
04/02:00am 17.2 12.8 8.9 58 4.3 WNW 22 30 12 16 1012.9 1012.8 0.0
04/01:30am 16.2 13.0 9.9 66 3.3 WNW 17 20 9 11 1012.9 1012.8 0.0
04/01:00am 16.6 12.8 9.9 64 3.5 WNW 20 24 11 13 1012.8 1012.7 0.0
04/12:30am 17.2 13.5 10.0 62 3.8 WNW 20 28 11 15 1012.5 1012.4 0.0
04/12:00am 17.7 13.2 10.0 60 4.1 WNW 24 33 13 18 1012.2 1012.1 0.0
 
Date/Time
EST
Temp
°C
App
Temp
°C
Dew
Point
Rel
Hum
%
Delta-T
°C
Wind Press
QNH
hPa
Press
MSL
hPa
Rain
since 9 am
mm
Dir
 
Spd
km/h
Gust
km/h
Spd
kts
Gust
kts
03/11:30pm 17.8 14.1 10.1 60 4.1 WNW 20 30 11 16 1012.1 1012.0 0.0
03/11:00pm 17.7 14.1 10.4 62 3.9 WNW 20 26 11 14 1011.9 1011.8 0.0
03/10:30pm 19.0 13.7 9.8 55 4.9 WNW 28 33 15 18 1011.5 1011.4 0.0
03/10:00pm 19.7 14.3 9.5 51 5.4 NW 28 35 15 19 1011.3 1011.2 0.0
03/09:30pm 19.6 15.9 9.6 52 5.3 NW 19 24 10 13 1011.2 1011.1 0.0
03/09:00pm 20.3 16.4 9.4 49 5.8 NW 20 28 11 15 1011.0 1010.9 0.0
03/08:30pm 20.1 17.2 9.6 51 5.6 NW 15 20 8 11 1011.0 1010.9 0.0
03/08:00pm 19.9 18.7 10.3 54 5.2 NNW 7 9 4 5 1010.6 1010.5 0.0
03/07:30pm 20.7 18.1 9.5 48 6.0 NW 13 17 7 9 1010.2 1010.1 0.0
03/07:00pm 21.1 17.8 9.5 47 6.2 NW 17 22 9 12 1010.0 1009.9 0.0
03/06:30pm 20.2 17.6 10.7 54 5.2 NW 15 19 8 10 1009.5 1009.4 0.0
03/06:00pm 19.8 18.6 11.7 59 4.5 NNW 9 13 5 7 1009.1 1009.0 0.0
03/05:30pm 19.0 17.8 12.8 67 3.5 NW 11 13 6 7 1008.9 1008.8 0.0
03/05:00pm 22.2 20.5 12.3 53 5.6 NW 13 19 7 10 1008.7 1008.6 0.0
03/04:30pm 23.7 20.7 12.1 48 6.6 NW 19 24 10 13 1008.3 1008.3 0.0
03/04:00pm 24.3 20.4 12.2 46 6.9 NNW 24 32 13 17 1008.0 1008.0 0.0
03/03:30pm 24.6 19.8 11.8 44 7.3 NW 28 37 15 20 1008.1 1008.1 0.0
03/03:00pm 24.9 20.3 12.2 45 7.3 NW 28 37 15 20 1008.2 1008.2 0.0
03/02:30pm 25.0 20.5 12.7 46 7.1 NW 28 39 15 21 1008.3 1008.3 0.0
03/02:00pm 24.1 18.3 12.8 49 6.5 WNW 35 52 19 28 1008.6 1008.5 0.0
03/01:37pm 23.9 18.6 13.0 50 6.3 NW 33 54 18 29 1008.8 1008.7 0.0
03/01:30pm 23.4 17.3 13.0 52 6.0 WNW 37 50 20 27 1009.1 1009.0 0.0
03/01:23pm 23.8 17.8 13.3 51 6.1 WNW 37 56 20 30 1009.1 1009.0 0.0
03/01:00pm 23.5 17.1 13.3 52 5.9 WNW 39 52 21 28 1009.6 1009.5 0.0
03/12:32pm 22.8 16.4 13.1 54 5.6 WNW 39 57 21 31 1010.2 1010.1 0.0
03/12:30pm 22.8 16.1 13.3 55 5.5 WNW 41 57 22 31 1010.2 1010.1 0.0
03/12:00pm 23.5 18.3 14.4 56 5.4 WNW 35 48 19 26 1010.5 1010.4 0.0
03/11:30am 24.2 20.7 14.4 54 5.8 WNW 26 33 14 18 1010.8 1010.7 0.0
03/11:00am 23.9 20.8 14.4 55 5.6 WNW 24 37 13 20 1011.3 1011.2 0.0
03/10:30am 22.3 19.8 14.1 59 4.8 WNW 20 30 11 16 1012.0 1011.9 0.0
03/10:00am 22.7 21.3 14.6 60 4.8 WNW 15 30 8 16 1012.4 1012.3 0.0
03/09:30am 21.8 20.5 14.7 64 4.2 WNW 15 22 8 12 1012.7 1012.6 0.0
03/09:00am 20.3 20.1 14.7 70 3.3 NNW 9 13 5 7 1013.1 1013.0 0.0
03/08:30am 18.8 18.6 14.7 77 2.4 NNW 9 11 5 6 1013.4 1013.3 0.0
03/08:00am 17.2 16.8 14.2 82 1.7 N 9 11 5 6 1013.6 1013.5 0.0
03/07:30am 16.2 16.2 14.3 88 1.1 NNE 7 9 4 5 1013.5 1013.4 0.0
03/07:00am 14.8 14.0 14.1 96 0.4 NE 11 13 6 7 1013.2 1013.1 0.0
03/06:30am 13.9 15.0 13.5 97 0.2 CALM 0 0 0 0 1013.1 1013.0 0.0
03/06:00am 14.3 14.4 13.8 97 0.3 ENE 6 7 3 4 1012.7 1012.6 0.0
03/05:30am 14.8 15.0 14.1 96 0.4 NNW 6 7 3 4 1012.5 1012.4 0.0
03/05:00am 15.2 15.1 14.0 92 0.7 NW 7 9 4 5 1012.2 1012.1 0.0
03/04:30am 16.2 15.0 14.1 87 1.2 NNW 13 15 7 8 1011.7 1011.6 0.0
03/04:00am 16.3 15.5 14.0 86 1.3 NW 11 13 6 7 1011.9 1011.8 0.0
03/03:30am 16.2 15.0 13.9 86 1.3 NW 13 17 7 9 1011.6 1011.5 0.0
03/03:00am 16.4 14.4 13.9 85 1.4 WNW 17 20 9 11 1011.6 1011.5 0.0
03/02:30am 16.1 14.8 13.6 85 1.4 NW 13 15 7 8 1011.7 1011.6 0.0
03/02:00am 16.4 14.7 13.7 84 1.5 WNW 15 19 8 10 1012.2 1012.1 0.0
03/01:30am 16.8 14.5 14.0 83 1.6 WNW 19 22 10 12 1012.3 1012.2 0.0
03/01:00am 16.4 14.9 14.3 87 1.2 W 15 20 8 11 1012.8 1012.7 0.0
03/12:30am 16.0 15.3 14.2 89 1.0 W 11 13 6 7 1013.0 1012.9 0.0
03/12:00am 17.1 16.5 14.5 85 1.5 NW 11 13 6 7 1013.2 1013.1 0.0
 
Date/Time
EST
Temp
°C
App
Temp
°C
Dew
Point
Rel
Hum
%
Delta-T
°C
Wind Press
QNH
hPa
Press
MSL
hPa
Rain
since 9 am
mm
Dir
 
Spd
km/h
Gust
km/h
Spd
kts
Gust
kts
02/11:30pm 17.2 16.3 14.8 86 1.4 NW 13 13 7 7 1013.5 1013.4 0.0
02/11:00pm 18.4 17.8 14.6 78 2.2 NW 11 15 6 8 1013.9 1013.8 0.0
02/10:30pm 18.4 17.9 15.0 80 2.0 NW 11 13 6 7 1014.1 1014.0 0.0
02/10:00pm 19.3 18.0 14.7 74 2.7 NW 15 19 8 10 1013.9 1013.8 0.0
02/09:30pm 19.2 19.4 14.7 75 2.6 WNW 7 13 4 7 1014.7 1014.6 0.0
02/09:00pm 19.1 19.1 15.2 78 2.3 W 9 11 5 6 1014.8 1014.7 0.0
02/08:30pm 19.7 19.7 15.3 76 2.6 NW 9 13 5 7 1014.5 1014.4 0.0
02/08:00pm 20.4 19.6 15.1 71 3.1 NW 13 22 7 12 1014.7 1014.6 0.0
02/07:30pm 19.9 20.3 17.3 85 1.6 N 11 13 6 7 1014.6 1014.5 0.0
02/07:00pm 20.1 21.3 17.3 84 1.7 NNE 7 11 4 6 1014.1 1014.0 0.0
02/06:30pm 20.2 21.4 17.3 83 1.8 N 7 9 4 5 1014.0 1013.9 0.0
02/06:00pm 20.7 21.0 17.1 80 2.2 NE 11 15 6 8 1013.7 1013.6 0.0
02/05:30pm 20.7 20.7 17.3 81 2.1 NE 13 15 7 8 1013.1 1013.0 0.0
02/05:00pm 21.2 21.6 17.3 78 2.4 ENE 11 15 6 8 1013.0 1012.9 0.0
02/04:30pm 21.7 22.1 17.3 76 2.7 ENE 11 13 6 7 1012.8 1012.7 0.0
02/04:00pm 22.1 22.4 17.0 73 3.1 ENE 11 15 6 8 1012.8 1012.7 0.0
02/03:30pm 22.5 22.7 16.8 70 3.5 NE 11 15 6 8 1012.9 1012.8 0.0
02/03:00pm 23.4 24.0 16.9 67 4.0 E 9 11 5 6 1012.9 1012.8 0.0
02/02:30pm 24.1 24.5 15.3 58 5.3 NE 7 11 4 6 1012.7 1012.6 0.0
02/02:00pm 24.5 24.7 14.6 54 5.9 N 7 13 4 7 1012.7 1012.6 0.0
02/01:30pm 24.3 23.9 14.1 53 6.0 NNE 9 17 5 9 1013.1 1013.0 0.0
02/01:00pm 24.6 25.1 15.1 55 5.7 NNW 6 11 3 6 1013.5 1013.4 0.0
02/12:30pm 23.7 23.1 14.6 56 5.4 NE 11 17 6 9 1014.3 1014.2 0.0
02/12:00pm 23.8 22.5 14.9 57 5.3 N 15 20 8 11 1014.7 1014.6 0.0
02/11:30am 23.1 22.6 15.0 60 4.8 NNE 11 17 6 9 1015.1 1015.0 0.0
02/11:00am 22.6 23.2 15.2 63 4.4 NNE 6 11 3 6 1015.7 1015.6 0.0
02/10:30am 22.5 22.5 15.3 63 4.3 NNE 9 11 5 6 1016.6 1016.5 0.0
02/10:00am 22.0 22.7 16.2 69 3.5 NNW 7 13 4 7 1017.1 1017.0 0.0
02/09:30am 21.3 22.6 16.1 72 3.1 NNE 4 9 2 5 1017.6 1017.5 0.0
02/09:00am 20.5 21.6 15.6 73 2.9 NNW 4 7 2 4 1017.8 1017.7 2.6
02/08:30am 19.1 19.2 15.5 79 2.1 NNW 9 11 5 6 1018.0 1017.9 2.6
02/08:00am 17.7 18.0 16.0 90 1.0 NW 9 11 5 6 1018.1 1018.0 2.6
02/07:30am 15.5 15.8 15.0 97 0.3 NW 7 9 4 5 1017.8 1017.7 2.6
02/07:00am 13.6 13.4 13.1 97 0.3 NW 6 13 3 7 1017.5 1017.4 2.6
02/06:30am 13.5 14.1 13.1 97 0.2 NNW 2 6 1 3 1017.5 1017.4 2.6
02/06:00am 13.5 13.1 13.0 97 0.3 SW 7 11 4 6 1017.2 1017.1 2.6
02/05:30am 13.3 12.9 13.1 99 0.1 N 7 7 4 4 1016.9 1016.8 2.6
02/05:00am 14.6 14.7 13.9 96 0.4 N 6 9 3 5 1016.5 1016.4 2.6
02/04:30am 14.0 13.8 13.5 97 0.3 NNW 7 9 4 5 1016.4 1016.3 2.6
02/04:00am 13.1 12.7 12.4 95 0.4 WSW 6 9 3 5 1016.3 1016.2 2.6
02/03:30am 13.5 14.4 12.8 95 0.4 CALM 0 7 0 4 1015.9 1015.8 2.6
02/03:00am 13.3 14.1 12.6 95 0.4 CALM 0 0 0 0 1015.9 1015.8 2.6
02/02:30am 13.6 14.6 13.1 97 0.3 CALM 0 0 0 0 1015.9 1015.8 2.6
02/02:00am 14.1 13.8 13.4 96 0.4 NW 7 9 4 5 1015.8 1015.7 2.6
02/01:30am 15.3 15.6 14.4 94 0.5 NW 6 7 3 4 1015.9 1015.8 2.6
02/01:00am 15.4 14.8 13.6 89 1.0 NW 9 11 5 6 1015.8 1015.7 2.6
02/12:30am 14.7 13.3 13.4 92 0.7 NW 13 15 7 8 1015.8 1015.7 2.6
02/12:00am 15.2 15.3 14.0 92 0.7 W 6 11 3 6 1015.9 1015.8 2.6
 
Date/Time
EST
Temp
°C
App
Temp
°C
Dew
Point
Rel
Hum
%
Delta-T
°C
Wind Press
QNH
hPa
Press
MSL
hPa
Rain
since 9 am
mm
Dir
 
Spd
km/h
Gust
km/h
Spd
kts
Gust
kts
01/11:30pm 15.8 17.3 14.6 93 0.7 CALM 0 0 0 0 1016.0 1015.9 2.6
01/11:00pm 17.7 17.3 14.2 80 2.0 WNW 9 17 5 9 1015.8 1015.7 2.6
01/10:30pm 17.9 17.7 14.6 81 1.9 WNW 9 11 5 6 1015.6 1015.5 2.6
01/10:00pm 18.2 18.4 14.6 79 2.1 WNW 7 11 4 6 1015.4 1015.3 2.6
01/09:30pm 18.9 18.3 14.6 76 2.5 NNW 11 15 6 8 1015.1 1015.0 2.6
01/09:00pm 18.8 18.2 14.7 77 2.4 NNW 11 15 6 8 1014.8 1014.7 2.6
01/08:30pm 19.2 18.2 14.7 75 2.6 NNW 13 15 7 8 1014.3 1014.2 2.6
01/08:00pm 19.8 18.9 14.8 73 2.9 NW 13 17 7 9 1014.0 1013.9 2.6
01/07:30pm 20.3 19.1 15.0 71 3.1 NW 15 17 8 9 1013.7 1013.6 2.6
01/07:00pm 20.7 20.7 15.3 71 3.2 NNW 9 11 5 6 1013.7 1013.6 2.6
01/06:30pm 21.7 21.8 15.5 68 3.7 NNW 9 17 5 9 1013.5 1013.4 2.6
01/06:00pm 21.7 21.6 15.9 69 3.5 N 11 17 6 9 1013.3 1013.2 2.6
01/05:30pm 22.2 20.9 15.7 66 3.9 NNW 17 24 9 13 1013.3 1013.2 2.6
01/05:00pm 21.9 21.2 16.5 71 3.3 NNW 15 26 8 14 1013.2 1013.1 2.6
01/04:30pm 21.5 21.5 17.1 76 2.7 N 13 19 7 10 1013.0 1012.9 2.6
01/04:00pm 21.4 22.3 17.5 78 2.4 NNW 9 13 5 7 1013.0 1012.9 2.6
01/03:30pm 21.5 21.8 17.8 79 2.3 NNW 13 17 7 9 1013.0 1012.9 2.6
01/03:00pm 21.6 21.9 17.9 79 2.3 NNW 13 17 7 9 1012.9 1012.8 2.6
01/02:30pm 21.4 21.4 18.2 82 2.0 NNW 15 19 8 10 1013.0 1012.9 2.6
01/02:00pm 21.1 21.4 18.0 82 1.9 NNW 13 17 7 9 1013.1 1013.0 2.6
01/01:30pm 21.0 20.9 17.8 82 2.0 NNW 15 20 8 11 1012.9 1012.8 2.6
01/01:00pm 20.4 20.2 17.5 83 1.8 N 15 19 8 10 1013.4 1013.3 2.6
01/12:30pm 20.5 20.3 17.6 83 1.8 NNW 15 20 8 11 1013.7 1013.6 2.6
01/12:00pm 20.2 19.7 17.9 87 1.4 N 17 26 9 14 1013.9 1013.8 2.6
01/11:30am 20.0 20.0 18.1 89 1.2 N 15 20 8 11 1014.5 1014.4 2.6
01/11:00am 19.5 19.2 18.2 92 0.8 N 17 22 9 12 1015.4 1015.3 2.6
01/10:30am 19.1 18.3 18.1 94 0.6 N 19 28 10 15 1015.9 1015.8 2.6
01/10:00am 19.1 18.8 18.3 95 0.5 N 17 22 9 12 1016.4 1016.3 1.6
01/09:30am 18.7 19.0 18.0 96 0.4 N 13 17 7 9 1017.5 1017.4 0.8
01/09:00am 18.2 18.7 17.5 96 0.4 N 11 15 6 8 1017.4 1017.3 5.6
01/08:30am 17.8 17.0 17.1 96 0.4 NW 17 20 9 11 1017.3 1017.2 4.8
01/08:07am 17.9 17.1 17.2 96 0.4 NW 17 24 9 13 1017.5 1017.4 3.8
01/08:00am 17.9 16.6 17.2 96 0.4 WNW 20 37 11 20 1017.3 1017.2 3.0
01/07:52am 17.8 15.4 17.3 97 0.3 WNW 26 37 14 20 1017.2 1017.1 2.4
01/07:30am 17.3 15.1 16.8 97 0.3 WNW 24 35 13 19 1016.8 1016.7 0.6
01/07:22am 17.1 15.2 16.8 98 0.2 W 22 33 12 18 1016.6 1016.5 0.4
01/07:00am 17.3 18.4 17.0 98 0.2 NNW 7 9 4 5 1014.6 1014.5 0.4
01/06:30am 17.0 17.9 16.7 98 0.2 NNE 7 9 4 5 1014.1 1014.0 0.4

Other Formats:

Comma delimited format used in spreadsheet applications
http://www.bom.gov.au/fwo/IDN60801/IDN60801.94776.axf

JavaScript Object Notation format (JSON) in row-major order
http://www.bom.gov.au/fwo/IDN60801/IDN60801.94776.json